Fultonville, New York
Current Conditions -  °F | °C
As of 11:15 AM on Thursday 18 Dec 2014 (Local Time) from KNY0 Reporting Station
Overcast Overcast  
Wind Chill: 20°   Ceiling: 1200
Heat Index: 30°   Visibility: 10mi
Dew Point: 26°   Wind: 13mph
Humidity: 83%   Direction: 270°W
Pressure: 29.9"   Gusts: 22mph
Location:  42.95°N, 74.37°W
Report Text: KNY0 181615Z AUTO 27011G19KT 10SM OVC012 M01/M03 A2990 RMK AO2 T10101035
Loading
Personal Weather Stations






























Interactive Weather Map New forecast layout! Learn more

10-Day Weather Forecast

Advertisements
Track Severe Weather on mobile